createdAt,value
2018-06-19T00:00:01.990Z,20.95
2018-06-19T00:02:30.537Z,21.11
2018-06-19T00:04:58.922Z,21.02
2018-06-19T00:07:27.102Z,21.06
2018-06-19T00:09:55.377Z,21.11
2018-06-19T00:12:23.850Z,20.96
2018-06-19T00:14:52.359Z,20.86
2018-06-19T00:17:20.702Z,20.85
2018-06-19T00:19:51.917Z,20.67
2018-06-19T00:22:20.337Z,20.79
2018-06-19T00:24:48.709Z,20.91
2018-06-19T00:27:16.993Z,20.74
2018-06-19T00:29:45.373Z,20.79
2018-06-19T00:32:13.649Z,20.84
2018-06-19T00:34:41.982Z,20.93
2018-06-19T00:37:10.306Z,20.94
2018-06-19T00:39:38.486Z,20.95
2018-06-19T00:42:06.653Z,20.90
2018-06-19T00:44:34.826Z,21.03
2018-06-19T00:47:03.342Z,20.99
2018-06-19T00:49:31.678Z,21.05
2018-06-19T00:51:59.925Z,20.96
2018-06-19T00:54:28.236Z,20.88
2018-06-19T00:56:57.581Z,20.96
2018-06-19T00:59:26.229Z,21.11
2018-06-19T01:01:55.230Z,21.07
2018-06-19T01:04:23.634Z,20.97
2018-06-19T01:06:52.086Z,20.92
2018-06-19T01:09:20.546Z,20.79
2018-06-19T01:11:49.055Z,20.92
2018-06-19T01:14:17.329Z,20.69
2018-06-19T01:16:46.498Z,20.82
2018-06-19T01:19:14.909Z,20.75
2018-06-19T01:21:43.373Z,20.77
2018-06-19T01:24:11.664Z,20.59
2018-06-19T01:26:40.062Z,20.58
2018-06-19T01:29:08.417Z,20.75
2018-06-19T01:31:36.821Z,20.66
2018-06-19T01:34:05.075Z,20.80
2018-06-19T01:36:33.555Z,20.66
2018-06-19T01:39:02.068Z,20.62
2018-06-19T01:41:30.525Z,20.71
2018-06-19T01:43:58.900Z,20.51
2018-06-19T01:46:27.287Z,20.66
2018-06-19T01:48:55.749Z,20.59
2018-06-19T01:51:24.033Z,20.64
2018-06-19T01:53:52.408Z,20.57
2018-06-19T01:56:20.684Z,20.65
2018-06-19T01:58:48.969Z,20.51
2018-06-19T02:01:17.350Z,20.48
2018-06-19T02:03:45.812Z,20.54
2018-06-19T02:06:13.996Z,20.53
2018-06-19T02:08:42.481Z,20.53
2018-06-19T02:11:11.721Z,20.45
2018-06-19T02:13:39.978Z,20.54
2018-06-19T02:16:08.259Z,20.60
2018-06-19T02:18:36.615Z,20.63
2018-06-19T02:21:04.893Z,20.70
2018-06-19T02:23:33.173Z,20.63
2018-06-19T02:26:01.652Z,20.61
2018-06-19T02:28:30.023Z,20.61
2018-06-19T02:30:58.472Z,20.60
2018-06-19T02:33:26.787Z,20.55
2018-06-19T02:35:55.179Z,20.44
2018-06-19T02:38:23.529Z,20.50
2018-06-19T02:40:51.822Z,20.69
2018-06-19T02:43:20.096Z,20.59
2018-06-19T02:45:48.474Z,20.51
2018-06-19T02:48:16.754Z,20.36
2018-06-19T02:50:45.134Z,20.50
2018-06-19T02:53:13.616Z,20.60
2018-06-19T02:55:41.881Z,20.73
2018-06-19T02:58:10.171Z,20.81
2018-06-19T03:00:38.341Z,20.51
2018-06-19T03:03:06.720Z,20.65
2018-06-19T03:05:34.998Z,20.78
2018-06-19T03:08:03.506Z,20.69
2018-06-19T03:10:31.752Z,20.81
2018-06-19T03:13:00.143Z,20.76
2018-06-19T03:15:28.418Z,20.62
2018-06-19T03:17:56.894Z,20.63
2018-06-19T03:20:25.606Z,20.74
2018-06-19T03:22:54.076Z,20.62
2018-06-19T03:25:22.773Z,20.59
2018-06-19T03:27:52.010Z,20.66
2018-06-19T03:30:20.384Z,20.68
2018-06-19T03:32:48.805Z,20.64
2018-06-19T03:35:17.300Z,20.82
2018-06-19T03:37:45.599Z,20.82
2018-06-19T03:40:13.933Z,20.82
2018-06-19T03:42:42.125Z,20.92
2018-06-19T03:45:10.381Z,21.00
2018-06-19T03:47:38.554Z,21.09
2018-06-19T03:50:07.148Z,20.93
2018-06-19T03:52:35.429Z,20.97
2018-06-19T03:55:04.034Z,20.91
2018-06-19T03:57:32.430Z,20.88
2018-06-19T04:00:00.968Z,20.94
2018-06-19T04:02:29.150Z,21.02
2018-06-19T04:04:57.317Z,20.94
2018-06-19T04:07:25.555Z,20.90
2018-06-19T04:09:53.761Z,20.93
2018-06-19T04:12:22.158Z,21.02
2018-06-19T04:14:50.534Z,21.10
2018-06-19T04:17:24.303Z,21.10
2018-06-19T04:19:53.130Z,21.23
2018-06-19T04:22:21.616Z,21.29
2018-06-19T04:24:49.881Z,21.40
2018-06-19T04:27:18.271Z,21.30
2018-06-19T04:29:46.422Z,21.43
2018-06-19T04:32:15.234Z,21.40
2018-06-19T04:34:43.506Z,21.42
2018-06-19T04:37:11.779Z,21.48
2018-06-19T04:39:40.061Z,21.59
2018-06-19T04:42:08.732Z,21.49
2018-06-19T04:44:37.134Z,21.65
2018-06-19T04:47:05.506Z,21.61
2018-06-19T04:49:34.091Z,21.71
2018-06-19T04:52:02.715Z,21.81
2018-06-19T04:54:31.045Z,21.73
2018-06-19T04:56:59.385Z,21.72
2018-06-19T04:59:27.704Z,21.74
2018-06-19T05:01:55.985Z,21.84
2018-06-19T05:04:24.564Z,21.88
2018-06-19T05:06:53.147Z,21.95
2018-06-19T05:09:21.641Z,21.93
2018-06-19T05:11:50.125Z,21.98
2018-06-19T05:14:18.501Z,21.94
2018-06-19T05:16:47.593Z,22.05
2018-06-19T05:19:16.179Z,22.13
2018-06-19T05:21:44.662Z,22.25
2018-06-19T05:24:12.965Z,22.29
2018-06-19T05:26:41.413Z,22.36
2018-06-19T05:29:09.796Z,22.44
2018-06-19T05:31:41.387Z,22.52
2018-06-19T05:34:09.417Z,22.68
2018-06-19T05:36:37.953Z,22.60
2018-06-19T05:39:09.129Z,22.51
2018-06-19T05:41:37.626Z,22.58
2018-06-19T05:44:07.025Z,22.61
2018-06-19T05:46:36.087Z,22.77
2018-06-19T05:49:04.572Z,22.75
2018-06-19T05:51:33.101Z,22.78
2018-06-19T05:54:01.680Z,22.88
2018-06-19T05:56:30.069Z,22.84
2018-06-19T05:58:58.539Z,22.80
2018-06-19T06:01:26.924Z,22.89
2018-06-19T06:03:55.289Z,22.97
2018-06-19T06:06:23.557Z,23.00
2018-06-19T06:08:51.851Z,23.03
2018-06-19T06:11:20.308Z,23.14
2018-06-19T06:13:48.818Z,23.32
2018-06-19T06:16:17.301Z,23.30
2018-06-19T06:18:45.781Z,23.39
2018-06-19T06:21:14.268Z,23.34
2018-06-19T06:23:42.633Z,23.40
2018-06-19T06:26:11.321Z,23.52
2018-06-19T06:28:39.803Z,23.51
2018-06-19T06:31:08.489Z,23.57
2018-06-19T06:33:36.771Z,23.49
2018-06-19T06:36:05.456Z,23.66
2018-06-19T06:38:33.986Z,23.54
2018-06-19T06:41:02.643Z,23.56
2018-06-19T06:43:31.078Z,23.60
2018-06-19T06:45:59.634Z,23.55
2018-06-19T06:48:28.165Z,23.58
2018-06-19T06:50:56.662Z,23.60
2018-06-19T06:53:24.919Z,23.63
2018-06-19T06:55:53.406Z,23.73
2018-06-19T06:58:21.786Z,23.78
2018-06-19T07:00:50.165Z,23.75
2018-06-19T07:03:18.808Z,23.86
2018-06-19T07:05:47.125Z,23.88
2018-06-19T07:08:15.931Z,23.92
2018-06-19T07:10:44.194Z,23.87
2018-06-19T07:13:12.597Z,24.02
2018-06-19T07:15:41.097Z,24.04
2018-06-19T07:18:10.449Z,24.10
2018-06-19T07:20:38.882Z,24.06
2018-06-19T07:23:07.219Z,24.21
2018-06-19T07:25:35.842Z,24.24
2018-06-19T07:28:04.974Z,24.29
2018-06-19T07:30:33.564Z,24.44
2018-06-19T07:33:01.958Z,24.55
2018-06-19T07:35:30.338Z,24.78
2018-06-19T07:37:59.022Z,25.00
2018-06-19T07:40:27.322Z,25.11
2018-06-19T07:43:00.031Z,24.92
2018-06-19T07:45:28.366Z,24.90
2018-06-19T07:47:56.767Z,24.83
2018-06-19T07:50:25.337Z,25.00
2018-06-19T07:52:53.602Z,25.07
2018-06-19T07:55:22.113Z,25.22
2018-06-19T07:57:50.792Z,25.37
2018-06-19T08:00:19.029Z,25.46
2018-06-19T08:02:47.224Z,25.52
2018-06-19T08:05:15.594Z,25.56
2018-06-19T08:07:43.875Z,25.68
2018-06-19T08:10:12.357Z,25.72
2018-06-19T08:12:40.632Z,25.74
2018-06-19T08:15:08.808Z,25.74
2018-06-19T08:17:37.380Z,25.73
2018-06-19T08:20:05.857Z,25.69
2018-06-19T08:22:34.387Z,25.87
2018-06-19T08:25:02.738Z,26.04
2018-06-19T08:27:31.343Z,26.12
2018-06-19T08:30:00.170Z,26.24
2018-06-19T08:32:28.615Z,26.32
2018-06-19T08:34:56.557Z,26.42
2018-06-19T08:37:25.043Z,26.53
2018-06-19T08:39:53.789Z,26.51
2018-06-19T08:42:22.314Z,26.40
2018-06-19T08:44:50.702Z,26.41
2018-06-19T08:47:19.378Z,26.45
2018-06-19T08:49:47.575Z,26.48
2018-06-19T08:52:16.164Z,26.52
2018-06-19T08:54:44.405Z,26.56
2018-06-19T08:57:13.036Z,26.58
2018-06-19T08:59:41.368Z,26.68
2018-06-19T09:02:09.754Z,26.74
2018-06-19T09:04:38.110Z,26.85
2018-06-19T09:07:06.612Z,26.93
2018-06-19T09:09:34.989Z,26.94
2018-06-19T09:12:03.492Z,26.95
2018-06-19T09:14:31.758Z,26.91
2018-06-19T09:16:59.848Z,26.96
2018-06-19T09:19:27.827Z,26.96
2018-06-19T09:21:56.171Z,26.97
2018-06-19T09:24:24.562Z,27.04
2018-06-19T09:26:53.165Z,27.00
2018-06-19T09:29:22.527Z,26.99
2018-06-19T09:31:50.922Z,27.01
2018-06-19T09:34:19.297Z,27.10
2018-06-19T09:36:47.884Z,27.25
2018-06-19T09:39:16.387Z,27.29
2018-06-19T09:41:45.214Z,27.35
2018-06-19T09:44:13.724Z,27.41
2018-06-19T09:46:42.477Z,27.40
2018-06-19T09:49:10.861Z,27.38
2018-06-19T09:51:40.408Z,27.37
2018-06-19T09:54:08.995Z,27.37
2018-06-19T09:56:37.501Z,27.41
2018-06-19T09:59:06.038Z,27.51
2018-06-19T10:01:34.675Z,27.49
2018-06-19T10:04:03.226Z,27.48
2018-06-19T10:06:31.569Z,27.51
2018-06-19T10:08:59.988Z,27.48
2018-06-19T10:11:28.363Z,27.57
2018-06-19T10:13:56.847Z,27.70
2018-06-19T10:16:25.377Z,27.70
2018-06-19T10:18:53.835Z,27.76
2018-06-19T10:21:22.184Z,27.72
2018-06-19T10:23:50.924Z,27.61
2018-06-19T10:26:19.278Z,27.61
2018-06-19T10:28:47.454Z,27.63
2018-06-19T10:31:15.813Z,27.65
2018-06-19T10:33:44.214Z,27.62
2018-06-19T10:36:12.474Z,27.62
2018-06-19T10:38:40.933Z,27.65
2018-06-19T10:41:09.524Z,27.71
2018-06-19T10:43:37.899Z,27.77
2018-06-19T10:46:06.090Z,27.89
2018-06-19T10:48:35.162Z,27.85
2018-06-19T10:51:03.672Z,28.04
2018-06-19T10:53:31.936Z,27.90
2018-06-19T10:56:00.365Z,27.89
2018-06-19T10:58:28.610Z,27.97
2018-06-19T11:00:56.762Z,27.99
2018-06-19T11:03:24.640Z,28.02
2018-06-19T11:05:52.524Z,27.93
2018-06-19T11:08:20.893Z,27.95
2018-06-19T11:10:50.254Z,28.03
2018-06-19T11:13:18.757Z,27.93
2018-06-19T11:15:47.278Z,28.03
2018-06-19T11:18:15.602Z,28.09
2018-06-19T11:20:44.097Z,28.12
2018-06-19T11:23:12.388Z,28.14
2018-06-19T11:25:40.572Z,28.09
2018-06-19T11:28:08.870Z,28.14
2018-06-19T11:30:37.317Z,28.26
2018-06-19T11:33:05.694Z,28.29
2018-06-19T11:35:34.177Z,28.19
2018-06-19T11:38:02.860Z,28.24
2018-06-19T11:40:31.087Z,28.29
2018-06-19T11:42:59.315Z,28.34
2018-06-19T11:45:27.582Z,28.36
2018-06-19T11:47:55.853Z,28.28
2018-06-19T11:50:24.278Z,28.28
2018-06-19T11:52:52.726Z,28.22
2018-06-19T11:55:21.212Z,28.30
2018-06-19T11:57:49.894Z,28.14
2018-06-19T12:00:18.336Z,28.33
2018-06-19T12:02:46.755Z,28.36
2018-06-19T12:05:15.232Z,28.43
2018-06-19T12:07:44.808Z,28.43
2018-06-19T12:10:13.221Z,28.42
2018-06-19T12:12:41.672Z,28.36
2018-06-19T12:15:09.981Z,28.42
2018-06-19T12:17:38.366Z,28.36
2018-06-19T12:20:07.673Z,28.37
2018-06-19T12:22:36.116Z,28.37
2018-06-19T12:25:04.728Z,28.52
2018-06-19T12:27:33.008Z,28.53
2018-06-19T12:30:01.389Z,28.56
2018-06-19T12:32:29.672Z,28.55
2018-06-19T12:34:57.837Z,28.53
2018-06-19T12:37:26.475Z,28.60
2018-06-19T12:39:55.386Z,28.66
2018-06-19T12:42:23.592Z,28.75
2018-06-19T12:44:52.078Z,28.78
2018-06-19T12:47:20.594Z,28.68
2018-06-19T12:50:28.158Z,28.59
2018-06-19T12:53:07.381Z,28.61
2018-06-19T12:55:46.509Z,28.53
2018-06-19T12:58:14.896Z,28.54
2018-06-19T13:00:43.399Z,28.58
2018-06-19T13:03:22.812Z,28.59
2018-06-19T13:06:02.442Z,28.53
2018-06-19T13:08:30.982Z,28.58
2018-06-19T13:10:59.468Z,28.72
2018-06-19T13:13:38.682Z,28.83
2018-06-19T13:16:16.374Z,28.77
2018-06-19T13:18:55.685Z,28.84
2018-06-19T13:21:24.164Z,28.77
2018-06-19T13:23:52.646Z,28.64
2018-06-19T13:26:20.937Z,28.51
2018-06-19T13:29:59.065Z,28.54
2018-06-19T13:32:27.648Z,28.50
2018-06-19T13:34:56.030Z,28.48
2018-06-19T13:37:24.394Z,28.55
2018-06-19T13:41:20.365Z,28.65
2018-06-19T13:44:01.316Z,28.65
2018-06-19T13:46:31.500Z,28.70
2018-06-19T13:48:59.668Z,28.77
2018-06-19T13:51:27.961Z,28.79
2018-06-19T13:53:56.476Z,28.73
2018-06-19T13:57:41.013Z,28.79
2018-06-19T14:00:12.885Z,28.71
2018-06-19T14:02:41.357Z,28.61
2018-06-19T14:05:10.194Z,28.58
2018-06-19T14:07:52.066Z,28.55
2018-06-19T14:10:31.399Z,28.49
2018-06-19T14:13:02.920Z,28.47
2018-06-19T14:15:33.014Z,28.46
2018-06-19T14:18:01.122Z,28.50
2018-06-19T14:20:29.634Z,28.53
2018-06-19T14:22:57.976Z,28.41
2018-06-19T14:25:26.257Z,28.50
2018-06-19T14:27:54.517Z,28.43
2018-06-19T14:30:22.920Z,28.48
2018-06-19T14:32:51.391Z,28.45
2018-06-19T14:35:19.765Z,28.38
2018-06-19T14:37:48.149Z,28.37
2018-06-19T14:40:16.777Z,28.39
2018-06-19T14:42:45.120Z,28.45
2018-06-19T14:45:13.465Z,28.50
2018-06-19T14:47:42.332Z,28.47
2018-06-19T14:50:10.872Z,28.48
2018-06-19T14:52:39.044Z,28.55
2018-06-19T14:55:07.885Z,28.47
2018-06-19T14:57:36.326Z,28.41
2018-06-19T15:00:05.134Z,28.35
2018-06-19T15:02:35.317Z,28.39
2018-06-19T15:05:04.313Z,28.35
2018-06-19T15:07:38.041Z,28.36
2018-06-19T15:10:07.349Z,28.28
2018-06-19T15:12:35.621Z,28.31
2018-06-19T15:15:04.084Z,28.32
2018-06-19T15:17:32.593Z,28.26
2018-06-19T15:20:00.942Z,28.31
2018-06-19T15:22:29.496Z,28.46
2018-06-19T15:24:57.901Z,28.34
2018-06-19T15:27:26.176Z,28.41
2018-06-19T15:29:54.653Z,28.32
2018-06-19T15:32:23.173Z,28.39
2018-06-19T15:34:51.861Z,28.34
2018-06-19T15:37:20.468Z,28.27
2018-06-19T15:39:48.589Z,28.02
2018-06-19T15:42:17.068Z,27.41
2018-06-19T15:44:45.349Z,27.25
2018-06-19T15:47:13.618Z,27.01
2018-06-19T15:49:42.203Z,27.04
2018-06-19T15:52:11.106Z,27.04
2018-06-19T15:54:39.820Z,26.90
2018-06-19T15:57:08.370Z,27.22
2018-06-19T15:59:36.646Z,27.17
2018-06-19T16:02:05.125Z,27.03
2018-06-19T16:04:33.712Z,26.91
2018-06-19T16:07:02.194Z,26.92
2018-06-19T16:09:30.664Z,26.79
2018-06-19T16:11:59.275Z,26.24
2018-06-19T16:14:27.640Z,26.25
2018-06-19T16:16:57.301Z,25.95
2018-06-19T16:19:25.737Z,25.81
2018-06-19T16:21:54.032Z,25.33
2018-06-19T16:24:22.462Z,25.17
2018-06-19T16:26:50.925Z,24.20
2018-06-19T16:29:19.341Z,24.17
2018-06-19T16:31:47.738Z,23.86
2018-06-19T16:34:16.107Z,23.90
2018-06-19T16:36:44.383Z,23.94
2018-06-19T16:39:12.785Z,24.05
2018-06-19T16:41:41.252Z,24.05
2018-06-19T16:44:09.721Z,24.07
2018-06-19T16:46:38.180Z,24.28
2018-06-19T16:49:07.706Z,24.39
2018-06-19T16:51:35.990Z,24.30
2018-06-19T16:54:04.365Z,24.35
2018-06-19T16:56:32.792Z,24.40
2018-06-19T16:59:01.344Z,24.48
2018-06-19T17:01:29.769Z,24.50
2018-06-19T17:03:58.085Z,24.43
2018-06-19T17:06:26.491Z,24.42
2018-06-19T17:08:55.049Z,24.44
2018-06-19T17:11:23.429Z,24.13
2018-06-19T17:13:51.756Z,24.37
2018-06-19T17:16:19.982Z,24.84
2018-06-19T17:18:48.559Z,24.86
2018-06-19T17:21:16.973Z,24.98
2018-06-19T17:23:45.330Z,25.49
2018-06-19T17:26:13.581Z,25.34
2018-06-19T17:28:42.017Z,25.20
2018-06-19T17:31:10.341Z,24.97
2018-06-19T17:33:38.740Z,25.20
2018-06-19T17:36:07.213Z,24.75
2018-06-19T17:38:35.596Z,24.76
2018-06-19T17:41:04.271Z,24.50
2018-06-19T17:43:32.561Z,24.40
2018-06-19T17:46:00.937Z,24.62
2018-06-19T17:48:29.246Z,24.76
2018-06-19T17:50:57.425Z,24.59
2018-06-19T17:53:25.721Z,24.50
2018-06-19T17:55:54.050Z,24.42
2018-06-19T17:58:22.325Z,24.34
2018-06-19T18:00:50.696Z,24.34
2018-06-19T18:03:18.985Z,24.33
2018-06-19T18:05:47.461Z,24.33
2018-06-19T18:08:16.151Z,24.20
2018-06-19T18:10:44.338Z,24.17
2018-06-19T18:13:12.812Z,24.19
2018-06-19T18:15:41.094Z,24.16
2018-06-19T18:18:09.588Z,24.20
2018-06-19T18:20:38.078Z,24.11
2018-06-19T18:23:06.305Z,24.02
2018-06-19T18:25:34.689Z,23.92
2018-06-19T18:28:03.148Z,23.90
2018-06-19T18:30:31.570Z,23.95
2018-06-19T18:32:59.836Z,23.78
2018-06-19T18:35:28.344Z,23.86
2018-06-19T18:37:56.574Z,23.85
2018-06-19T18:40:25.621Z,23.84
2018-06-19T18:42:54.075Z,23.96
2018-06-19T18:45:22.563Z,23.85
2018-06-19T18:47:51.021Z,23.68
2018-06-19T18:50:19.635Z,23.86
2018-06-19T18:52:48.002Z,23.82
2018-06-19T18:55:16.377Z,23.70
2018-06-19T18:57:44.761Z,23.68
2018-06-19T19:00:13.233Z,23.69
2018-06-19T19:02:41.527Z,23.65
2018-06-19T19:05:09.897Z,23.62
2018-06-19T19:07:38.155Z,23.69
2018-06-19T19:10:11.878Z,23.69
2018-06-19T19:12:40.149Z,23.68
2018-06-19T19:15:14.681Z,23.71
2018-06-19T19:17:48.267Z,23.58
2018-06-19T19:20:16.990Z,23.76
2018-06-19T19:22:45.128Z,23.54
2018-06-19T19:25:13.569Z,23.59
2018-06-19T19:27:47.212Z,23.52
2018-06-19T19:30:15.962Z,23.31
2018-06-19T19:32:44.288Z,23.29
2018-06-19T19:35:12.673Z,23.27
2018-06-19T19:37:46.319Z,23.25
2018-06-19T19:40:14.882Z,23.21
2018-06-19T19:42:43.128Z,23.29
2018-06-19T19:45:11.534Z,23.30
2018-06-19T19:47:45.213Z,23.29
2018-06-19T19:50:13.484Z,23.28
2018-06-19T19:52:41.874Z,23.32
2018-06-19T19:55:10.362Z,23.12
2018-06-19T19:57:44.128Z,22.88
2018-06-19T20:00:16.899Z,22.91
2018-06-19T20:02:45.549Z,22.97
2018-06-19T20:05:13.862Z,22.79
2018-06-19T20:07:42.365Z,22.77
2018-06-19T20:10:10.862Z,22.94
2018-06-19T20:12:39.283Z,22.93
2018-06-19T20:15:07.622Z,22.91
2018-06-19T20:17:37.152Z,22.76
2018-06-19T20:20:08.384Z,22.70
2018-06-19T20:22:36.953Z,22.72
2018-06-19T20:25:05.645Z,22.70
2018-06-19T20:27:34.330Z,22.64
2018-06-19T20:30:02.897Z,22.45
2018-06-19T20:32:31.600Z,22.48
2018-06-19T20:35:00.091Z,22.54
2018-06-19T20:37:28.546Z,22.32
2018-06-19T20:39:57.012Z,22.38
2018-06-19T20:42:25.656Z,22.38
2018-06-19T20:44:54.309Z,22.34
2018-06-19T20:47:22.703Z,22.32
2018-06-19T20:49:51.941Z,22.15
2018-06-19T20:52:20.655Z,22.20
2018-06-19T20:54:49.412Z,21.94
2018-06-19T20:57:18.103Z,21.92
2018-06-19T20:59:46.768Z,22.13
2018-06-19T21:02:15.227Z,22.12
2018-06-19T21:04:43.669Z,22.13
2018-06-19T21:07:12.745Z,22.12
2018-06-19T21:09:42.021Z,22.13
2018-06-19T21:12:10.278Z,22.10
2018-06-19T21:14:38.452Z,21.86
2018-06-19T21:17:07.138Z,21.82
2018-06-19T21:19:35.510Z,21.84
2018-06-19T21:22:03.925Z,21.75
2018-06-19T21:24:32.066Z,21.60
2018-06-19T21:27:08.722Z,21.66
2018-06-19T21:29:37.118Z,21.64
2018-06-19T21:32:05.599Z,21.62
2018-06-19T21:34:34.081Z,21.67
2018-06-19T21:37:02.486Z,21.49
2018-06-19T21:39:30.840Z,21.58
2018-06-19T21:41:59.113Z,21.41
2018-06-19T21:44:27.485Z,21.29
2018-06-19T21:46:56.077Z,21.17
2018-06-19T21:49:24.250Z,21.27
2018-06-19T21:51:52.754Z,21.14
2018-06-19T21:54:21.003Z,21.26
2018-06-19T21:56:49.507Z,21.09
2018-06-19T21:59:17.878Z,21.10
2018-06-19T22:01:46.259Z,21.06
2018-06-19T22:04:14.433Z,20.93
2018-06-19T22:06:42.818Z,21.04
2018-06-19T22:09:11.176Z,21.19
2018-06-19T22:11:39.589Z,21.08
2018-06-19T22:14:07.833Z,20.89
2018-06-19T22:16:36.267Z,20.91
2018-06-19T22:19:04.890Z,20.98
2018-06-19T22:21:33.173Z,20.84
2018-06-19T22:24:01.567Z,20.83
2018-06-19T22:26:30.073Z,21.02
2018-06-19T22:28:58.333Z,20.93
2018-06-19T22:31:26.602Z,21.00
2018-06-19T22:33:55.087Z,20.96
2018-06-19T22:36:23.346Z,21.04
2018-06-19T22:38:51.745Z,21.11
2018-06-19T22:41:20.002Z,20.95
2018-06-19T22:43:48.394Z,20.70
2018-06-19T22:46:16.666Z,20.63
2018-06-19T22:48:44.953Z,20.71
2018-06-19T22:51:13.322Z,20.82
2018-06-19T22:53:41.607Z,20.71
2018-06-19T22:56:09.766Z,20.73
2018-06-19T22:58:38.157Z,20.70
2018-06-19T23:01:06.413Z,20.69
2018-06-19T23:03:35.044Z,20.80
2018-06-19T23:06:03.603Z,20.82
2018-06-19T23:08:34.189Z,20.73
2018-06-19T23:11:02.750Z,20.67
2018-06-19T23:13:31.208Z,20.70
2018-06-19T23:15:59.457Z,20.65
2018-06-19T23:18:27.751Z,20.90
2018-06-19T23:20:56.225Z,21.01
2018-06-19T23:23:24.690Z,21.12
2018-06-19T23:25:53.085Z,21.08
2018-06-19T23:28:21.467Z,20.95
2018-06-19T23:30:49.953Z,20.74
2018-06-19T23:33:18.550Z,20.79
2018-06-19T23:35:46.918Z,20.83
2018-06-19T23:38:16.089Z,20.86
2018-06-19T23:40:45.628Z,20.94
2018-06-19T23:43:14.196Z,20.95
2018-06-19T23:45:42.677Z,21.05
2018-06-19T23:48:10.968Z,21.01
2018-06-19T23:50:39.450Z,21.11
2018-06-19T23:53:07.930Z,21.12
2018-06-19T23:55:36.458Z,21.16
2018-06-19T23:58:04.993Z,21.15
